Time;durP1;ratioP1;P1;durP2;ratioP2;P2;SDS_P1;SDS_P2;PMS_P1;PMS_P2;Temp;Humidity;BMP_temperature;BMP_pressure;BME280_temperature;BME280_humidity;BME280_pressure;Samples;Min_cycle;Max_cycle;Signal;HPM_P1;HPM_P2
2022/06/03 00:01:38;;;;;;;6.72;4.80;;;;;;;10.17;71.40;101867.48;1783972;79;21152;-85
2022/06/03 00:04:31;;;;;;;5.92;4.40;;;;;;;10.13;71.48;101866.45;1781169;80;21638;-87
2022/06/03 00:07:26;;;;;;;8.23;4.90;;;;;;;10.12;71.65;101870.82;1732253;81;21765;-87
2022/06/03 00:10:22;;;;;;;10.13;4.70;;;;;;;10.11;71.70;101881.27;1752119;81;21562;-87
2022/06/03 00:13:13;;;;;;;6.03;4.20;;;;;;;10.09;71.76;101878.98;1770564;79;21076;-88
2022/06/03 00:16:17;;;;;;;6.25;4.62;;;;;;;10.06;71.80;101885.41;1730535;82;21584;-86
2022/06/03 00:18:58;;;;;;;5.80;4.60;;;;;;;10.03;71.98;101879.61;1764461;80;21054;-86
2022/06/03 00:21:30;;;;;;;7.33;4.50;;;;;;;10.02;72.07;101881.78;1767774;80;21765;-87
2022/06/03 00:24:23;;;;;;;7.37;4.60;;;;;;;10.00;72.07;101878.14;1741740;81;21078;-86
2022/06/03 00:27:16;;;;;;;7.30;4.42;;;;;;;9.97;72.09;101889.86;1759136;79;22419;-86
2022/06/03 00:30:08;;;;;;;9.80;4.30;;;;;;;9.95;72.15;101882.71;1765270;80;21214;-87
2022/06/03 00:33:04;;;;;;;6.87;4.72;;;;;;;9.93;72.16;101882.67;1757493;79;21127;-86
2022/06/03 00:36:10;;;;;;;5.47;4.22;;;;;;;9.90;72.27;101878.15;1774725;80;21855;-86
2022/06/03 00:39:03;;;;;;;9.28;4.85;;;;;;;9.90;72.37;101879.89;1756061;80;21549;-86
2022/06/03 00:41:54;;;;;;;9.35;4.47;;;;;;;9.88;72.40;101877.61;1785968;79;21066;-87
2022/06/03 00:45:01;;;;;;;8.05;4.00;;;;;;;9.85;72.46;101879.69;1735860;80;21099;-87
2022/06/03 00:48:07;;;;;;;7.70;4.08;;;;;;;9.85;72.52;101881.40;1788347;79;21618;-86
2022/06/03 00:50:51;;;;;;;7.90;4.47;;;;;;;9.83;72.55;101882.64;1774664;80;22701;-85
2022/06/03 00:53:51;;;;;;;;;;;;;;;9.81;72.58;101883.41;1772310;79;21620;-86
2022/06/03 00:56:53;;;;;;;6.83;4.40;;;;;;;9.81;72.85;101881.67;1729599;80;20800;-87
2022/06/03 00:59:35;;;;;;;5.83;4.10;;;;;;;9.83;72.96;101885.27;1755613;80;21709;-87
2022/06/03 01:02:16;;;;;;;5.85;4.28;;;;;;;9.96;73.16;101889.79;1749655;80;21081;-86
2022/06/03 01:05:04;;;;;;;5.60;4.08;;;;;;;10.05;73.28;101891.52;1722083;82;21858;-85
2022/06/03 01:07:44;;;;;;;8.28;4.42;;;;;;;10.15;73.40;101894.15;1719417;83;21097;-86
2022/06/03 01:10:57;;;;;;;9.45;4.00;;;;;;;10.26;73.48;101897.73;1719175;83;21110;-87
2022/06/03 01:14:14;;;;;;;6.40;4.15;;;;;;;10.36;73.40;101895.55;1728189;82;21090;-86
2022/06/03 01:17:08;;;;;;;7.70;4.00;;;;;;;10.48;73.40;101887.78;1680241;84;21655;-86
2022/06/03 01:19:51;;;;;;;6.30;4.20;;;;;;;10.62;73.43;101891.42;1682675;85;21764;-85
2022/06/03 01:22:39;;;;;;;6.08;4.25;;;;;;;10.69;73.30;101886.48;1699261;83;22227;-87
2022/06/03 01:25:32;;;;;;;8.90;4.10;;;;;;;10.78;73.29;101887.73;1719623;83;21089;-86
2022/06/03 01:28:49;;;;;;;6.80;4.10;;;;;;;10.86;73.31;101888.94;1684073;83;21683;-87
2022/06/03 01:31:37;;;;;;;5.80;4.03;;;;;;;10.95;73.21;101891.96;1729739;81;21070;-88
2022/06/03 01:34:40;;;;;;;7.45;4.17;;;;;;;11.02;73.10;101889.18;1736709;81;21761;-88
2022/06/03 01:37:17;;;;;;;7.60;4.30;;;;;;;11.09;73.08;101893.45;1677348;83;21133;-86
2022/06/03 01:40:18;;;;;;;6.53;3.90;;;;;;;11.18;73.02;101891.58;1726316;81;21026;-87
2022/06/03 01:43:12;;;;;;;6.90;4.20;;;;;;;11.23;72.91;101882.56;1728608;81;21118;-86
2022/06/03 01:46:22;;;;;;;4.65;4.12;;;;;;;11.29;72.87;101883.69;1708348;82;21078;-87
2022/06/03 01:49:23;;;;;;;5.78;4.50;;;;;;;11.34;72.86;101886.53;1707195;83;22560;-86
2022/06/03 01:52:11;;;;;;;4.87;4.03;;;;;;;11.41;72.87;101894.25;1709370;83;21078;-85
2022/06/03 01:54:58;;;;;;;3.95;3.40;;;;;;;11.43;72.74;101888.22;1682853;83;21062;-85
2022/06/03 01:58:10;;;;;;;5.17;3.52;;;;;;;11.45;72.64;101886.54;1725712;82;22300;-85
2022/06/03 02:00:42;;;;;;;8.38;4.25;;;;;;;11.44;72.62;101894.37;1721479;81;21165;-86
2022/06/03 02:03:46;;;;;;;4.28;3.77;;;;;;;11.41;72.55;101891.22;1728373;80;21866;-86
2022/06/03 02:06:24;;;;;;;5.58;3.95;;;;;;;11.41;72.62;101889.89;1777590;80;21427;-86
2022/06/03 02:09:21;;;;;;;6.87;4.22;;;;;;;11.43;72.65;101893.48;1748325;80;21065;-86
2022/06/03 02:12:11;;;;;;;6.62;3.75;;;;;;;11.47;72.69;101886.60;1732890;82;21141;-85
2022/06/03 02:15:01;;;;;;;6.17;4.05;;;;;;;11.47;72.64;101887.92;1731069;82;21064;-87
2022/06/03 02:17:36;;;;;;;4.87;3.87;;;;;;;11.46;72.67;101886.11;1783027;80;22688;-86
2022/06/03 02:20:42;;;;;;;8.85;3.95;;;;;;;11.45;72.57;101894.45;1753279;80;21596;-86
2022/06/03 02:23:23;;;;;;;7.08;3.65;;;;;;;11.43;72.54;101891.25;1740838;81;21561;-86
2022/06/03 02:26:21;;;;;;;6.75;3.90;;;;;;;11.40;72.57;101895.99;1722466;82;21272;-84
2022/06/03 02:30:24;;;;;;;7.42;3.95;;;;;;;11.39;72.61;101895.53;1770784;80;21038;-85
2022/06/03 02:31:43;;;;;;;5.12;3.62;;;;;;;11.39;72.62;101893.28;1777811;80;21777;-85
2022/06/03 02:34:31;;;;;;;5.15;3.72;;;;;;;11.39;72.66;101893.28;1754964;80;21061;-85
2022/06/03 02:37:18;;;;;;;6.08;3.83;;;;;;;11.44;72.74;101893.06;1757577;80;21053;-84
2022/06/03 02:40:18;;;;;;;5.37;4.10;;;;;;;11.47;72.69;101897.15;1783339;80;21208;-86
2022/06/03 02:43:22;;;;;;;5.15;4.03;;;;;;;11.48;72.64;101898.50;1782687;80;21077;-87
2022/06/03 02:46:03;;;;;;;11.50;4.58;;;;;;;11.48;72.72;101897.61;1782586;80;21787;-87
2022/06/03 02:49:03;;;;;;;6.30;4.55;;;;;;;11.51;72.73;101903.02;1728798;82;21023;-86
2022/06/03 02:52:05;;;;;;;6.67;4.42;;;;;;;11.55;72.79;101906.25;1741450;81;21051;-85
2022/06/03 02:55:03;;;;;;;12.85;4.15;;;;;;;11.60;72.71;101899.42;1741308;82;21059;-85
2022/06/03 02:58:22;;;;;;;8.20;4.72;;;;;;;11.64;72.73;101903.09;1742215;81;21129;-85
2022/06/03 03:01:13;;;;;;;10.28;4.58;;;;;;;11.69;72.70;101912.05;1740466;81;21813;-85
2022/06/03 03:04:21;;;;;;;5.75;4.60;;;;;;;11.72;72.54;101908.66;1750457;80;21055;-87
2022/06/03 03:07:18;;;;;;;7.22;5.12;;;;;;;11.71;72.51;101910.38;1755988;81;21097;-86
2022/06/03 03:09:59;;;;;;;6.20;4.47;;;;;;;11.68;72.47;101905.00;1757589;81;21070;-85
2022/06/03 03:12:38;;;;;;;7.05;4.30;;;;;;;11.67;72.49;101913.34;1782809;80;21125;-86
2022/06/03 03:15:22;;;;;;;5.67;4.20;;;;;;;11.68;72.63;101911.16;1692390;83;21692;-86
2022/06/03 03:18:13;;;;;;;8.00;4.40;;;;;;;11.76;72.68;101914.52;1783352;80;21014;-86
2022/06/03 03:21:18;;;;;;;6.17;4.75;;;;;;;11.79;72.48;101905.42;1787499;80;21069;-86
2022/06/03 03:24:17;;;;;;;9.03;4.45;;;;;;;11.78;72.36;101898.34;1755933;80;21070;-86
2022/06/03 03:27:23;;;;;;;8.33;3.90;;;;;;;11.80;72.36;101908.09;1788493;78;21076;-86
2022/06/03 03:30:30;;;;;;;5.55;3.62;;;;;;;12.16;73.42;101913.02;1752138;81;21769;-86
2022/06/03 03:33:30;;;;;;;6.12;3.47;;;;;;;13.80;74.92;101900.91;1768833;78;21073;-86
2022/06/03 03:36:28;;;;;;;5.17;4.05;;;;;;;15.23;72.62;101902.61;1766919;79;21062;-86
2022/06/03 03:39:36;;;;;;;6.15;3.90;;;;;;;16.51;71.72;101900.97;1746794;81;21062;-85
2022/06/03 03:42:42;;;;;;;7.22;3.62;;;;;;;17.57;70.13;101881.49;1762349;81;21058;-86
2022/06/03 03:46:03;;;;;;;7.65;3.87;;;;;;;18.33;68.13;101901.13;1763243;81;21925;-86
2022/06/03 03:48:47;;;;;;;6.78;3.62;;;;;;;19.56;67.09;101898.25;1756064;80;21680;-84
2022/06/03 03:52:12;;;;;;;4.37;3.33;;;;;;;20.99;64.64;101901.44;1783329;79;21081;-85
2022/06/03 03:55:17;;;;;;;4.80;3.33;;;;;;;21.93;63.25;101901.30;1783254;80;21073;-86
2022/06/03 03:58:12;;;;;;;4.28;2.80;;;;;;;23.04;60.70;101899.35;1771665;80;21857;-85
2022/06/03 04:01:15;;;;;;;4.37;3.15;;;;;;;23.75;59.13;101893.27;1787487;79;21981;-85
2022/06/03 04:03:56;;;;;;;7.75;2.87;;;;;;;23.36;55.83;101903.08;1738338;81;21073;-87
2022/06/03 04:06:34;;;;;;;5.30;3.00;;;;;;;23.22;56.92;101901.88;1744163;80;22279;-88
2022/06/03 04:09:21;;;;;;;4.00;2.85;;;;;;;24.29;56.32;101905.63;1738722;80;21546;-90
2022/06/03 04:12:16;;;;;;;6.25;2.75;;;;;;;25.43;54.44;101908.34;1738527;80;21072;-85
2022/06/03 04:14:57;;;;;;;4.55;2.52;;;;;;;25.96;52.30;101909.16;1693918;83;21788;-86
2022/06/03 04:18:03;;;;;;;6.08;2.98;;;;;;;25.06;50.12;101910.30;1701433;82;21066;-87
2022/06/03 04:21:06;;;;;;;8.05;3.20;;;;;;;23.47;49.71;101922.67;1699147;83;21075;-86
2022/06/03 04:24:13;;;;;;;4.72;2.98;;;;;;;21.86;50.28;101925.00;1700219;83;21074;-90
2022/06/03 04:27:05;;;;;;;5.33;2.90;;;;;;;21.14;51.10;101926.86;1744714;81;21583;-91
2022/06/03 04:29:58;;;;;;;3.90;3.08;;;;;;;19.67;51.95;101900.55;1703389;83;22676;-95
2022/06/03 04:33:09;;;;;;;5.20;3.27;;;;;;;19.67;51.95;101900.55;1683754;84;21157;-94
2022/06/03 04:36:35;;;;;;;6.12;3.12;;;;;;;19.45;52.46;101930.22;1695984;83;21106;-88
2022/06/03 04:39:44;;;;;;;;;;;;;;;19.35;52.52;101923.92;1753985;80;21686;-93
2022/06/03 04:42:38;;;;;;;5.22;3.67;;;;;;;19.04;52.94;101927.66;1741886;81;20271;-88
2022/06/03 04:45:55;;;;;;;5.70;3.40;;;;;;;18.78;53.39;101932.71;1765431;80;21765;-89
2022/06/03 04:48:39;;;;;;;5.70;3.52;;;;;;;18.43;53.61;101933.66;1731113;81;21049;-89
2022/06/03 04:51:36;;;;;;;7.10;3.30;;;;;;;18.15;54.15;101924.03;1719394;81;21033;-91
2022/06/03 04:54:50;;;;;;;4.33;3.27;;;;;;;17.96;54.66;101924.23;1743956;81;21869;-89
2022/06/03 04:58:30;;;;;;;7.20;3.50;;;;;;;17.86;55.16;101923.19;1689273;83;21105;-92
2022/06/03 05:05:41;;;;;;;4.47;3.77;;;;;;;18.93;54.74;101936.00;1675698;83;21066;-92
2022/06/03 05:08:22;;;;;;;6.03;3.87;;;;;;;18.82;54.52;101939.01;1700604;83;21090;-90
2022/06/03 05:11:43;;;;;;;6.55;3.55;;;;;;;19.10;54.97;101941.94;1664896;84;21089;-90
2022/06/03 05:14:55;;;;;;;3.70;3.15;;;;;;;20.92;56.63;101941.13;1662533;85;22351;-90
2022/06/03 05:17:29;;;;;;;3.60;3.05;;;;;;;24.11;55.04;101937.67;1651338;86;21790;-86
2022/06/03 05:20:37;;;;;;;8.08;3.42;;;;;;;26.79;52.18;101934.31;1648077;86;21112;-91
2022/06/03 05:23:59;;;;;;;4.42;2.98;;;;;;;28.29;49.29;101934.81;1662911;86;21102;-90
2022/06/03 05:27:10;;;;;;;4.62;3.12;;;;;;;28.60;47.10;101937.06;1655792;86;21129;-88
2022/06/03 05:30:15;;;;;;;5.10;2.92;;;;;;;27.35;44.61;101935.20;1637197;86;21097;-89
2022/06/03 05:33:08;;;;;;;4.40;2.75;;;;;;;26.67;45.86;101925.14;1719571;83;21768;-90
2022/06/03 05:36:29;;;;;;;2.92;2.40;;;;;;;28.61;46.73;101927.55;1725443;82;21097;-89
2022/06/03 05:39:30;;;;;;;5.83;3.22;;;;;;;30.54;44.97;101932.93;1716670;83;21102;-89
2022/06/03 05:42:29;;;;;;;4.85;3.10;;;;;;;29.65;41.74;101926.30;1705215;83;21268;-90
2022/06/03 05:45:59;;;;;;;9.70;3.17;;;;;;;27.92;41.52;101940.42;1727507;82;21105;-90
2022/06/03 05:49:03;;;;;;;5.28;3.42;;;;;;;26.03;41.95;101936.88;1716412;83;21306;-90
2022/06/03 05:52:06;;;;;;;4.15;2.62;;;;;;;24.31;43.13;101941.47;1724020;83;21061;-90
2022/06/03 05:54:39;;;;;;;5.85;2.80;;;;;;;23.31;44.12;101938.95;1726560;82;21066;-91
2022/06/03 05:57:35;;;;;;;6.33;3.10;;;;;;;22.06;45.30;101920.92;1722276;82;21177;-90
2022/06/03 06:00:29;;;;;;;4.15;2.33;;;;;;;22.06;45.30;101920.92;1726064;81;22239;-89
2022/06/03 06:03:13;;;;;;;5.30;2.60;;;;;;;21.75;46.00;101941.10;1726040;82;21882;-91
2022/06/03 06:05:51;;;;;;;7.67;2.80;;;;;;;21.50;46.60;101939.81;1727007;83;21122;-90
2022/06/03 06:08:54;;;;;;;7.67;2.55;;;;;;;21.37;46.90;101940.69;1727291;81;21050;-89
2022/06/03 06:12:05;;;;;;;8.35;3.00;;;;;;;21.29;47.30;101942.49;1723477;82;21773;-90
2022/06/03 06:15:00;;;;;;;7.33;2.85;;;;;;;21.25;47.41;101936.70;1692857;84;21347;-90
2022/06/03 06:17:51;;;;;;;5.72;2.45;;;;;;;21.40;47.73;101938.44;1698851;83;22617;-89
2022/06/03 06:21:13;;;;;;;6.87;2.50;;;;;;;21.58;47.81;101941.59;1666376;86;21157;-92
2022/06/03 06:24:09;;;;;;;4.60;3.17;;;;;;;21.55;47.77;101935.34;1678419;84;21606;-90
2022/06/03 06:26:52;;;;;;;5.35;2.35;;;;;;;21.55;47.77;101935.34;1684253;84;21077;-91
2022/06/03 06:29:54;;;;;;;5.28;2.55;;;;;;;21.41;47.30;101941.13;1717253;82;21067;-89
2022/06/03 06:32:47;;;;;;;7.03;2.40;;;;;;;21.25;47.06;101945.61;1716869;83;21741;-88
2022/06/03 06:35:44;;;;;;;5.97;2.30;;;;;;;21.25;47.06;101945.61;1721872;82;21081;-89
2022/06/03 06:38:44;;;;;;;4.22;2.35;;;;;;;20.97;47.24;101949.61;1694347;83;21138;-91
2022/06/03 06:41:38;;;;;;;7.97;2.58;;;;;;;20.72;47.39;101922.36;1718129;83;21062;-89
2022/06/03 06:44:39;;;;;;;7.40;2.50;;;;;;;20.83;47.49;101948.69;1702260;83;21105;-88
2022/06/03 06:47:37;;;;;;;4.75;2.33;;;;;;;20.69;47.53;101956.70;1690492;83;24371;-88
2022/06/03 06:50:26;;;;;;;6.90;2.40;;;;;;;20.67;47.75;101957.59;1711386;83;21105;-88
2022/06/03 06:53:04;;;;;;;8.13;2.75;;;;;;;20.57;47.70;101961.55;1698100;84;21043;-90
2022/06/03 06:55:48;;;;;;;6.50;2.50;;;;;;;20.61;47.79;101953.13;1724544;83;21037;-90
2022/06/03 06:58:43;;;;;;;6.33;2.80;;;;;;;20.56;47.62;101943.70;1724930;83;21106;-88
2022/06/03 07:01:53;;;;;;;5.65;2.75;;;;;;;20.57;47.81;101950.84;1698384;84;22463;-89
2022/06/03 07:04:41;;;;;;;7.55;2.60;;;;;;;20.50;47.62;101956.18;1724074;83;21312;-89
2022/06/03 07:08:18;;;;;;;5.25;2.40;;;;;;;20.42;47.90;101957.50;1727763;83;21082;-90
2022/06/03 07:10:55;;;;;;;7.83;2.70;;;;;;;20.42;47.90;101957.50;1697580;84;21097;-91
2022/06/03 07:14:16;;;;;;;6.65;2.60;;;;;;;20.54;48.07;101955.30;1699726;82;21058;-90
2022/06/03 07:19:48;;;;;;;4.55;2.67;;;;;;;21.11;47.75;101937.56;1726442;83;21146;-87
2022/06/03 07:22:38;;;;;;;6.08;2.52;;;;;;;21.15;47.56;101925.06;1710589;83;21563;-90
2022/06/03 07:25:48;;;;;;;5.37;2.47;;;;;;;21.06;47.30;101938.03;1714830;83;21799;-90
2022/06/03 07:29:11;;;;;;;7.12;2.58;;;;;;;20.97;47.32;101938.91;1725914;83;21074;-91
2022/06/03 07:32:20;;;;;;;5.45;2.50;;;;;;;20.83;47.04;101935.31;1749440;81;22591;-88
2022/06/03 07:35:01;;;;;;;5.53;2.22;;;;;;;20.66;47.09;101936.61;1705017;81;21210;-88
2022/06/03 07:38:02;;;;;;;5.92;2.55;;;;;;;20.44;47.11;101936.08;1697231;82;21089;-87
2022/06/03 07:41:28;;;;;;;4.33;2.58;;;;;;;20.33;47.28;101934.28;1697667;82;21315;-90
2022/06/03 07:44:15;;;;;;;4.58;2.30;;;;;;;20.38;47.43;101931.60;1706551;83;21550;-88
2022/06/03 07:47:05;;;;;;;4.35;2.40;;;;;;;20.32;47.45;101932.93;1672373;83;23463;-87
2022/06/03 07:49:32;;;;;;;4.20;2.27;;;;;;;20.44;47.53;101934.73;1694821;82;21125;-91
2022/06/03 07:52:40;;;;;;;5.00;2.33;;;;;;;20.72;47.25;101929.96;1727538;83;21119;-90
2022/06/03 07:55:18;;;;;;;4.90;2.62;;;;;;;21.06;47.10;101910.34;1717507;83;21044;-88
2022/06/03 07:57:50;;;;;;;7.97;2.85;;;;;;;21.06;47.10;101910.34;1698811;82;21695;-90
2022/06/03 08:00:19;;;;;;;3.98;2.30;;;;;;;21.31;47.10;101930.88;1725582;83;21796;-87
2022/06/03 08:03:06;;;;;;;7.30;2.80;;;;;;;21.39;46.66;101925.51;1729603;81;21372;-88
2022/06/03 08:05:49;;;;;;;3.65;2.17;;;;;;;21.49;46.64;101934.45;1695353;83;21618;-90
2022/06/03 08:11:14;;;;;;;8.10;2.47;;;;;;;21.61;46.14;101938.92;1715252;81;21084;-91
2022/06/03 08:13:46;;;;;;;4.40;2.00;;;;;;;21.54;45.69;101934.89;1700092;82;21892;-88
2022/06/03 08:16:51;;;;;;;5.13;1.73;;;;;;;21.33;45.35;101939.80;1696341;84;21071;-90
2022/06/03 08:19:20;;;;;;;7.00;2.30;;;;;;;21.15;45.51;101941.13;1698127;84;21067;-88
2022/06/03 08:21:53;;;;;;;6.28;2.27;;;;;;;20.92;45.65;101937.11;1728054;82;21119;-88
2022/06/03 08:25:20;;;;;;;6.55;2.20;;;;;;;20.76;45.96;101910.34;1701687;83;21074;-90
2022/06/03 08:27:48;;;;;;;5.12;2.62;;;;;;;21.23;45.62;101929.08;1676023;84;21837;-87
2022/06/03 08:30:24;;;;;;;2.45;1.80;;;;;;;21.23;45.62;101929.08;1707738;82;21074;-87
2022/06/03 08:32:59;;;;;;;2.90;1.77;;;;;;;21.20;44.97;101928.65;1710880;82;21537;-88
2022/06/03 08:35:34;;;;;;;7.22;1.90;;;;;;;21.20;44.97;101928.65;1699388;82;21086;-88
2022/06/03 08:38:07;;;;;;;3.50;2.00;;;;;;;21.17;44.94;101932.66;1647313;85;21046;-89
2022/06/03 08:40:54;;;;;;;5.10;2.60;;;;;;;21.25;44.75;101929.55;1705576;82;22610;-88
2022/06/03 08:43:45;;;;;;;5.60;1.62;;;;;;;21.34;44.51;101933.98;1697611;82;21152;-88
2022/06/03 08:46:24;;;;;;;2.47;1.62;;;;;;;21.48;44.55;101931.34;1606360;87;21146;-88
2022/06/03 08:48:58;;;;;;;4.30;2.00;;;;;;;21.54;44.08;101928.65;1604326;86;21163;-89
2022/06/03 08:51:37;;;;;;;4.33;2.17;;;;;;;21.42;43.74;101924.63;1613311;87;21107;-87
2022/06/03 08:55:01;;;;;;;5.15;1.77;;;;;;;21.19;43.94;101908.56;1604693;89;21775;-90
2022/06/03 08:57:41;;;;;;;3.40;1.65;;;;;;;21.22;43.90;101924.64;1604535;88;21107;-88
2022/06/03 09:00:19;;;;;;;3.75;1.62;;;;;;;21.19;43.87;101921.52;1602729;88;21646;-88
2022/06/03 09:02:56;;;;;;;6.50;2.15;;;;;;;21.09;43.71;101919.27;1603386;89;21624;-88
2022/06/03 09:05:40;;;;;;;3.33;1.65;;;;;;;21.07;43.57;101918.84;1604083;89;21950;-88
2022/06/03 09:08:30;;;;;;;3.03;1.60;;;;;;;21.07;43.29;101920.17;1604165;87;22004;-88
2022/06/03 09:11:25;;;;;;;2.75;1.70;;;;;;;21.05;43.36;101920.16;1599485;86;21344;-87
2022/06/03 09:13:57;;;;;;;3.83;1.77;;;;;;;20.95;43.63;101923.75;1631585;86;21124;-87
2022/06/03 09:16:27;;;;;;;6.85;2.52;;;;;;;20.93;43.59;101926.88;1631301;86;21121;-88
2022/06/03 09:18:58;;;;;;;3.17;2.02;;;;;;;20.96;43.49;101929.07;1632247;86;21728;-88
2022/06/03 09:22:01;;;;;;;3.42;1.90;;;;;;;20.97;43.67;101917.48;1673268;84;22040;-91
2022/06/03 09:24:40;;;;;;;4.45;1.75;;;;;;;21.02;43.82;101913.49;1688579;82;21058;-90
2022/06/03 09:27:10;;;;;;;3.40;1.80;;;;;;;21.04;43.56;101913.47;1688339;85;21071;-87
2022/06/03 09:29:37;;;;;;;5.35;1.60;;;;;;;20.94;43.29;101916.14;1716153;82;21051;-88
2022/06/03 09:32:06;;;;;;;3.02;1.90;;;;;;;20.88;43.31;101914.80;1698388;84;21068;-88
2022/06/03 09:34:41;;;;;;;4.05;1.77;;;;;;;20.85;43.31;101915.24;1695933;83;21780;-87
2022/06/03 09:37:15;;;;;;;4.87;1.60;;;;;;;20.85;43.24;101911.23;1678008;84;21550;-88
2022/06/03 09:39:55;;;;;;;4.58;2.00;;;;;;;20.93;43.35;101910.81;1670274;84;21081;-90
2022/06/03 09:42:37;;;;;;;3.65;1.80;;;;;;;21.03;43.20;101911.70;1671208;85;21049;-90
2022/06/03 09:45:06;;;;;;;3.30;2.00;;;;;;;21.16;43.00;101911.69;1686823;83;21066;-88
2022/06/03 09:47:32;;;;;;;4.08;2.00;;;;;;;21.26;42.79;101902.31;1692538;83;21727;-88
2022/06/03 09:49:59;;;;;;;3.22;1.75;;;;;;;21.29;42.74;101909.02;1714903;83;21540;-88
2022/06/03 09:52:27;;;;;;;4.08;1.85;;;;;;;21.24;42.58;101910.80;1716303;81;21055;-89
2022/06/03 09:55:15;;;;;;;4.33;2.08;;;;;;;21.20;42.46;101905.00;1699355;84;21063;-90
2022/06/03 09:57:42;;;;;;;3.85;1.90;;;;;;;21.19;42.56;101907.22;1715970;82;21023;-90
2022/06/03 10:00:21;;;;;;;3.10;1.90;;;;;;;21.19;42.38;101906.80;1712734;83;21754;-88
2022/06/03 10:02:48;;;;;;;4.83;2.02;;;;;;;21.18;42.10;101907.67;1687587;83;21169;-88
2022/06/03 10:05:16;;;;;;;3.08;1.75;;;;;;;21.34;42.62;101910.80;1707965;83;21066;-88
2022/06/03 10:07:52;;;;;;;3.12;1.87;;;;;;;21.43;42.67;101903.17;1687871;83;21298;-91
2022/06/03 10:13:08;;;;;;;3.17;2.22;;;;;;;21.47;42.59;101902.76;1686952;85;22518;-90
2022/06/03 10:16:25;;;;;;;5.03;1.85;;;;;;;21.47;42.59;101902.76;1693096;83;21039;-90
2022/06/03 10:18:51;;;;;;;35.20;6.20;;;;;;;21.42;42.41;101912.13;1716043;83;21071;-88
2022/06/03 10:21:25;;;;;;;6.35;3.22;;;;;;;21.40;42.57;101913.00;1683075;83;21074;-88
2022/06/03 10:23:59;;;;;;;5.35;1.92;;;;;;;21.44;42.42;101909.02;1707733;83;21094;-88
2022/06/03 10:26:52;;;;;;;5.85;2.30;;;;;;;21.49;42.30;101909.00;1703541;83;21767;-90
2022/06/03 10:29:21;;;;;;;5.12;1.75;;;;;;;21.48;42.22;101897.41;1707675;83;21055;-88
2022/06/03 10:32:02;;;;;;;3.80;1.98;;;;;;;21.61;42.39;101896.05;1687774;84;21077;-88
2022/06/03 10:34:36;;;;;;;3.72;1.60;;;;;;;21.61;42.39;101896.05;1658691;85;21087;-88
2022/06/03 10:37:07;;;;;;;3.90;1.62;;;;;;;21.53;42.18;101895.61;1656902;86;22039;-88
2022/06/03 10:39:33;;;;;;;4.22;1.70;;;;;;;21.59;42.49;101887.13;1666287;85;21765;-90
2022/06/03 10:42:00;;;;;;;5.05;2.20;;;;;;;21.81;42.52;101896.89;1686183;84;21086;-88
2022/06/03 10:44:36;;;;;;;3.27;2.10;;;;;;;22.02;41.83;101895.91;1656778;86;21091;-88
2022/06/03 10:47:19;;;;;;;5.17;2.33;;;;;;;21.95;41.37;101861.97;1672800;84;21052;-91
2022/06/03 10:49:56;;;;;;;2.92;1.95;;;;;;;21.95;41.37;101861.97;1673190;84;21066;-88
2022/06/03 11:01:22;;;;;;;2.65;2.27;;;;;;;22.29;41.05;101893.56;1629582;86;21541;-88
2022/06/03 11:03:51;;;;;;;3.60;1.75;;;;;;;22.42;41.22;101889.48;1706008;83;21329;-90
2022/06/03 11:06:37;;;;;;;3.50;1.72;;;;;;;22.57;41.02;101892.52;1672834;85;22433;-88
2022/06/03 11:09:06;;;;;;;3.30;1.72;;;;;;;22.63;40.83;101884.41;1639588;87;21126;-88
2022/06/03 11:15:59;;;;;;;6.15;1.65;;;;;;;22.75;40.14;101908.92;1627544;85;21094;-90
2022/06/03 11:18:34;;;;;;;3.80;1.42;;;;;;;22.64;40.35;101878.16;1630432;87;21311;-92
2022/06/03 11:21:28;;;;;;;6.37;3.00;;;;;;;22.64;40.35;101878.16;1634030;86;21764;-90
2022/06/03 11:27:55;;;;;;;4.58;1.52;;;;;;;22.79;40.19;101882.06;1614558;84;21238;-88
2022/06/03 11:34:44;;;;;;;2.33;1.52;;;;;;;23.02;39.92;101879.64;1657119;86;21590;-90
2022/06/03 11:37:19;;;;;;;1.70;1.37;;;;;;;23.12;39.70;101875.98;1608384;88;22561;-89
2022/06/03 11:39:57;;;;;;;2.62;1.62;;;;;;;23.08;39.39;101871.09;1604518;87;21181;-90
2022/06/03 11:42:47;;;;;;;4.15;1.90;;;;;;;22.99;39.19;101873.86;1625087;86;21694;-89
2022/06/03 11:45:50;;;;;;;4.00;2.02;;;;;;;22.87;39.13;101863.21;1616388;88;21148;-87
2022/06/03 11:48:40;;;;;;;5.00;2.00;;;;;;;23.18;39.74;101862.53;1556589;90;21191;-89
2022/06/03 11:51:08;;;;;;;2.50;1.70;;;;;;;23.18;39.74;101862.53;1528075;92;21795;-92
2022/06/03 11:53:39;;;;;;;3.15;1.70;;;;;;;23.33;39.29;101857.45;1537040;91;21214;-91
2022/06/03 11:56:09;;;;;;;2.80;1.90;;;;;;;23.40;39.07;101855.11;1579604;90;21153;-90
2022/06/03 11:59:04;;;;;;;3.98;1.50;;;;;;;23.41;39.04;101852.88;1583032;89;21318;-89
2022/06/03 12:01:48;;;;;;;3.55;2.02;;;;;;;23.37;38.80;101847.11;1597898;88;21165;-90
2022/06/03 12:04:47;;;;;;;6.42;2.12;;;;;;;23.45;39.14;101847.90;1593033;89;21771;-91
2022/06/03 12:07:35;;;;;;;2.60;1.87;;;;;;;23.53;38.95;101849.62;1594632;89;21189;-89
2022/06/03 12:10:24;;;;;;;4.00;1.75;;;;;;;23.62;38.87;101838.77;1594186;89;21101;-89
2022/06/03 12:13:17;;;;;;;2.98;1.40;;;;;;;23.79;38.46;101842.16;1586677;89;21309;-90
2022/06/03 12:15:53;;;;;;;2.40;1.67;;;;;;;23.73;38.27;101839.98;1599950;87;21242;-88
2022/06/03 12:18:35;;;;;;;5.65;1.67;;;;;;;23.70;38.44;101834.63;1624463;87;21804;-92
2022/06/03 12:21:11;;;;;;;2.62;1.90;;;;;;;23.89;38.54;101835.32;1606574;87;21150;-91
2022/06/03 12:23:49;;;;;;;3.58;1.92;;;;;;;24.13;38.19;101830.06;1597484;89;21093;-91
2022/06/03 12:26:33;;;;;;;2.85;2.00;;;;;;;24.40;37.84;101840.43;1647214;86;21106;-92
2022/06/03 12:29:37;;;;;;;3.40;2.45;;;;;;;24.61;37.23;101829.81;1661930;86;21130;-91
2022/06/03 12:32:14;;;;;;;3.65;2.27;;;;;;;24.70;37.01;101830.13;1660993;86;21760;-91
2022/06/03 12:34:41;;;;;;;2.27;1.70;;;;;;;24.70;36.72;101820.70;1663062;86;21232;-89
2022/06/03 12:41:07;;;;;;;1.77;1.60;;;;;;;24.52;36.79;101816.50;1663575;86;21143;-91
2022/06/03 12:43:57;;;;;;;1.65;1.55;;;;;;;24.24;36.76;101817.35;1663281;86;21119;-88
2022/06/03 12:47:20;;;;;;;1.90;1.75;;;;;;;24.28;36.84;101815.04;1661974;86;21779;-92
2022/06/03 12:49:50;;;;;;;2.37;1.67;;;;;;;24.39;36.75;101813.53;1667072;85;21058;-89
2022/06/03 12:52:31;;;;;;;2.65;1.95;;;;;;;24.39;36.23;101820.27;1666602;86;21118;-88
2022/06/03 12:55:54;;;;;;;3.50;1.82;;;;;;;24.38;36.34;101824.77;1666935;86;21114;-90
2022/06/03 12:59:29;;;;;;;3.65;1.60;;;;;;;24.52;36.17;101824.57;1694328;82;21171;-91
2022/06/03 13:02:47;;;;;;;7.22;2.90;;;;;;;24.66;36.22;101825.68;1691869;83;22518;-92
2022/06/03 13:05:56;;;;;;;8.58;3.15;;;;;;;24.40;37.19;101839.08;1690001;84;21038;-92
2022/06/03 13:09:34;;;;;;;8.55;3.25;;;;;;;23.31;38.72;101835.06;1702236;81;21073;-88
2022/06/03 13:11:25;;;;;;;11.85;3.45;;;;;;;22.69;39.90;101826.66;1718573;81;21126;-89
2022/06/03 13:14:29;;;;;;;9.88;3.77;;;;;;;22.31;40.74;101826.50;1703676;83;21587;-89
2022/06/03 13:17:07;;;;;;;10.23;3.52;;;;;;;21.92;41.43;101829.38;1711360;83;21313;-89
2022/06/03 13:19:42;;;;;;;8.05;3.85;;;;;;;21.28;42.47;101853.20;1690310;83;21150;-89
2022/06/03 13:22:15;;;;;;;8.80;3.25;;;;;;;20.78;43.16;101841.66;1704681;83;21071;-90
2022/06/03 13:25:55;;;;;;;10.00;3.55;;;;;;;20.50;44.13;101838.50;1680222;83;21075;-93
2022/06/03 13:28:37;;;;;;;8.38;3.35;;;;;;;20.56;44.42;101839.83;1714854;83;21130;-91
2022/06/03 13:31:21;;;;;;;10.38;3.47;;;;;;;20.47;45.33;101838.48;1714015;83;21233;-88
2022/06/03 13:34:44;;;;;;;9.50;4.60;;;;;;;20.47;45.33;101838.48;1706937;83;21091;-91
2022/06/03 13:45:21;;;;;;;8.23;3.87;;;;;;;19.40;46.73;101845.17;1665803;83;21115;-88
2022/06/03 13:47:56;;;;;;;8.93;3.72;;;;;;;19.17;47.30;101843.25;1718936;83;21781;-92
2022/06/03 13:50:35;;;;;;;10.80;4.20;;;;;;;18.85;47.45;101841.68;1704139;83;21031;-91
2022/06/03 13:53:05;;;;;;;6.83;4.00;;;;;;;18.53;47.96;101841.37;1700696;81;21582;-88
2022/06/03 13:55:38;;;;;;;6.08;3.75;;;;;;;18.30;48.45;101836.70;1680121;85;21056;-89
2022/06/03 13:58:18;;;;;;;8.05;4.17;;;;;;;18.14;48.77;101838.28;1717552;83;21077;-89
2022/06/03 14:00:57;;;;;;;11.05;4.05;;;;;;;17.94;49.23;101839.83;1706470;83;21876;-89